createdAt,value
2018-06-05T00:02:22.822Z,63.67
2018-06-05T00:04:51.099Z,59.07
2018-06-05T00:07:19.396Z,61.90
2018-06-05T00:09:47.677Z,64.57
2018-06-05T00:12:15.997Z,59.60
2018-06-05T00:14:44.272Z,60.20
2018-06-05T00:17:12.589Z,67.00
2018-06-05T00:19:40.850Z,61.73
2018-06-05T00:22:09.176Z,69.40
2018-06-05T00:24:37.457Z,61.00
2018-06-05T00:27:05.762Z,66.93
2018-06-05T00:29:34.112Z,68.87
2018-06-05T00:32:03.359Z,63.53
2018-06-05T00:34:31.792Z,68.30
2018-06-05T00:37:00.087Z,63.37
2018-06-05T00:39:28.379Z,64.97
2018-06-05T00:41:56.721Z,64.07
2018-06-05T00:44:24.991Z,64.20
2018-06-05T00:46:53.274Z,61.07
2018-06-05T00:49:21.832Z,60.33
2018-06-05T00:52:01.538Z,60.50
2018-06-05T00:54:29.829Z,66.10
2018-06-05T00:56:58.117Z,66.20
2018-06-05T00:59:26.404Z,68.57
2018-06-05T01:01:54.727Z,64.23
2018-06-05T01:04:22.981Z,66.53
2018-06-05T01:06:51.265Z,65.33
2018-06-05T01:09:19.586Z,66.20
2018-06-05T01:11:47.834Z,61.07
2018-06-05T01:14:16.118Z,62.57
2018-06-05T01:16:45.143Z,65.23
2018-06-05T01:19:13.430Z,64.30
2018-06-05T01:21:41.688Z,64.33
2018-06-05T01:24:09.995Z,69.20
2018-06-05T01:26:38.264Z,67.17
2018-06-05T01:29:06.559Z,67.97
2018-06-05T01:31:34.877Z,67.93
2018-06-05T01:34:03.263Z,64.77
2018-06-05T01:36:31.534Z,71.73
2018-06-05T01:38:59.817Z,62.60
2018-06-05T01:41:29.021Z,67.20
2018-06-05T01:43:57.314Z,67.17
2018-06-05T01:46:25.644Z,65.43
2018-06-05T01:48:53.950Z,67.13
2018-06-05T01:51:22.226Z,65.97
2018-06-05T01:53:50.525Z,63.33
2018-06-05T01:56:18.798Z,64.87
2018-06-05T01:58:47.419Z,64.20
2018-06-05T02:01:15.685Z,65.03
2018-06-05T02:03:44.003Z,62.07
2018-06-05T02:06:12.276Z,64.13
2018-06-05T02:08:40.886Z,58.83
2018-06-05T02:11:09.170Z,61.83
2018-06-05T02:13:37.477Z,61.53
2018-06-05T02:16:05.780Z,61.83
2018-06-05T02:18:34.082Z,65.47
2018-06-05T02:21:02.382Z,57.50
2018-06-05T02:23:30.674Z,56.40
2018-06-05T02:25:58.974Z,55.47
2018-06-05T02:28:27.272Z,55.00
2018-06-05T02:30:55.603Z,52.13
2018-06-05T02:33:23.948Z,53.20
2018-06-05T02:35:52.221Z,52.27
2018-06-05T02:38:20.529Z,53.07
2018-06-05T02:40:53.002Z,49.50
2018-06-05T02:43:21.764Z,51.97
2018-06-05T02:45:50.097Z,51.03
2018-06-05T02:48:18.806Z,49.73
2018-06-05T02:50:47.100Z,46.80
2018-06-05T02:53:16.146Z,50.00
2018-06-05T02:55:44.422Z,50.67
2018-06-05T02:58:13.399Z,51.13
2018-06-05T03:00:41.682Z,50.63
2018-06-05T03:03:09.992Z,49.50
2018-06-05T03:05:38.254Z,50.43
2018-06-05T03:08:06.574Z,47.97
2018-06-05T03:10:34.907Z,51.60
2018-06-05T03:13:03.169Z,55.07
2018-06-05T03:15:33.457Z,53.77
2018-06-05T03:18:01.886Z,54.73
2018-06-05T03:20:30.174Z,52.67
2018-06-05T03:22:58.442Z,54.93
2018-06-05T03:25:26.813Z,56.90
2018-06-05T03:27:55.170Z,60.50
2018-06-05T03:30:23.464Z,58.30
2018-06-05T03:32:51.747Z,54.07
2018-06-05T03:35:20.051Z,52.57
2018-06-05T03:37:48.322Z,55.53
2018-06-05T03:40:16.614Z,53.97
2018-06-05T03:42:44.871Z,55.10
2018-06-05T03:45:13.151Z,56.50
2018-06-05T03:47:41.429Z,54.90
2018-06-05T03:50:09.773Z,53.40
2018-06-05T03:52:38.107Z,52.33
2018-06-05T03:55:06.404Z,53.80
2018-06-05T03:57:34.662Z,58.53
2018-06-05T04:00:02.974Z,53.63
2018-06-05T04:02:31.236Z,51.87
2018-06-05T04:04:59.541Z,50.60
2018-06-05T04:07:27.828Z,49.50
2018-06-05T04:09:56.121Z,48.20
2018-06-05T04:12:24.437Z,51.53
2018-06-05T04:14:52.746Z,51.37
2018-06-05T04:17:21.015Z,48.87
2018-06-05T04:19:50.419Z,49.60
2018-06-05T04:22:18.685Z,50.27
2018-06-05T04:24:46.980Z,47.00
2018-06-05T04:27:15.277Z,45.30
2018-06-05T04:29:43.578Z,48.57
2018-06-05T04:32:11.844Z,47.87
2018-06-05T04:34:40.150Z,44.10
2018-06-05T04:37:08.470Z,47.10
2018-06-05T04:39:37.382Z,46.77
2018-06-05T04:42:05.667Z,43.53
2018-06-05T04:44:34.009Z,47.97
2018-06-05T04:47:02.271Z,40.10
2018-06-05T04:49:30.571Z,41.87
2018-06-05T04:51:58.833Z,42.47
2018-06-05T04:54:27.211Z,40.03
2018-06-05T04:56:55.513Z,43.13
2018-06-05T04:59:23.878Z,43.63
2018-06-05T05:01:52.186Z,44.33
2018-06-05T05:04:20.459Z,47.23
2018-06-05T05:06:49.319Z,43.70
2018-06-05T05:09:19.891Z,45.27
2018-06-05T05:11:49.546Z,43.80
2018-06-05T05:14:17.834Z,41.33
2018-06-05T05:16:46.248Z,41.27
2018-06-05T05:19:14.610Z,38.57
2018-06-05T05:21:43.028Z,45.83
2018-06-05T05:24:11.343Z,48.83
2018-06-05T05:26:39.830Z,43.17
2018-06-05T05:29:09.716Z,40.33
2018-06-05T05:31:37.997Z,39.83
2018-06-05T05:34:06.371Z,41.33
2018-06-05T05:36:34.676Z,40.13
2018-06-05T05:39:02.979Z,41.33
2018-06-05T05:41:31.277Z,44.83
2018-06-05T05:44:01.273Z,43.20
2018-06-05T05:46:29.585Z,42.17
2018-06-05T05:48:57.935Z,41.47
2018-06-05T05:51:26.255Z,42.50
2018-06-05T05:53:54.589Z,38.47
2018-06-05T05:56:22.889Z,36.03
2018-06-05T05:58:51.237Z,36.50
2018-06-05T06:01:19.569Z,39.27
2018-06-05T06:03:47.897Z,38.73
2018-06-05T06:06:16.263Z,37.63
2018-06-05T06:08:44.545Z,38.50
2018-06-05T06:11:12.926Z,37.10
2018-06-05T06:13:41.562Z,36.40
2018-06-05T06:16:09.909Z,37.03
2018-06-05T06:18:38.253Z,38.83
2018-06-05T06:21:06.643Z,35.60
2018-06-05T06:23:34.995Z,37.97
2018-06-05T06:26:03.898Z,39.40
2018-06-05T06:28:32.273Z,36.97
2018-06-05T06:31:00.562Z,38.53
2018-06-05T06:33:28.919Z,38.50
2018-06-05T06:35:57.282Z,39.40
2018-06-05T06:38:25.566Z,33.73
2018-06-05T06:40:54.895Z,36.40
2018-06-05T06:43:23.167Z,34.57
2018-06-05T06:45:51.471Z,32.50
2018-06-05T06:48:20.215Z,35.90
2018-06-05T06:50:48.608Z,36.80
2018-06-05T06:53:16.956Z,34.67
2018-06-05T06:55:45.263Z,36.90
2018-06-05T06:58:13.636Z,37.13
2018-06-05T07:00:42.068Z,37.30
2018-06-05T07:03:10.364Z,36.10
2018-06-05T07:05:38.662Z,38.10
2018-06-05T07:08:07.019Z,35.47
2018-06-05T07:10:35.527Z,37.73
2018-06-05T07:13:03.814Z,34.97
2018-06-05T07:15:32.118Z,37.27
2018-06-05T07:18:00.418Z,36.80
2018-06-05T07:20:28.783Z,35.83
2018-06-05T07:22:57.110Z,37.57
2018-06-05T07:25:25.403Z,35.50
2018-06-05T07:27:53.682Z,40.00
2018-06-05T07:30:21.974Z,39.97
2018-06-05T07:32:50.298Z,36.90
2018-06-05T07:35:18.576Z,36.70
2018-06-05T07:37:46.866Z,36.23
2018-06-05T07:40:15.146Z,40.23
2018-06-05T07:42:44.364Z,36.93
2018-06-05T07:45:12.651Z,38.37
2018-06-05T07:47:41.064Z,36.23
2018-06-05T07:50:09.341Z,37.23
2018-06-05T07:52:37.647Z,39.63
2018-06-05T07:55:05.993Z,40.67
2018-06-05T07:57:34.396Z,39.60
2018-06-05T08:00:02.947Z,35.23
2018-06-05T08:02:32.331Z,38.53
2018-06-05T08:05:01.739Z,37.50
2018-06-05T08:07:30.088Z,38.87
2018-06-05T08:09:58.391Z,35.27
2018-06-05T08:12:26.693Z,37.50
2018-06-05T08:14:55.051Z,35.50
2018-06-05T08:17:23.371Z,35.40
2018-06-05T08:19:51.731Z,38.03
2018-06-05T08:22:20.050Z,38.83
2018-06-05T08:24:48.345Z,37.40
2018-06-05T08:27:16.662Z,40.17
2018-06-05T08:29:44.936Z,36.20
2018-06-05T08:32:16.851Z,36.50
2018-06-05T08:34:45.133Z,35.73
2018-06-05T08:37:13.419Z,34.27
2018-06-05T08:39:41.688Z,33.07
2018-06-05T08:42:10.011Z,34.47
2018-06-05T08:44:38.283Z,33.67
2018-06-05T08:47:06.577Z,34.53
2018-06-05T08:49:35.679Z,48.13
2018-06-05T08:52:04.390Z,35.40
2018-06-05T08:54:32.856Z,36.50
2018-06-05T08:57:01.193Z,35.77
2018-06-05T08:59:29.577Z,34.97
2018-06-05T09:01:57.854Z,37.07
2018-06-05T09:04:26.151Z,35.63
2018-06-05T09:06:54.505Z,34.33
2018-06-05T09:09:22.903Z,35.07
2018-06-05T09:11:52.610Z,38.47
2018-06-05T09:14:20.908Z,35.93
2018-06-05T09:16:49.186Z,37.17
2018-06-05T09:19:17.595Z,45.03
2018-06-05T09:21:45.862Z,37.73
2018-06-05T09:24:14.154Z,37.53
2018-06-05T09:26:42.490Z,33.63
2018-06-05T09:29:10.803Z,32.07
2018-06-05T09:31:39.079Z,33.63
2018-06-05T09:34:07.446Z,36.27
2018-06-05T09:36:35.753Z,35.97
2018-06-05T09:39:04.981Z,37.50
2018-06-05T09:41:33.250Z,34.70
2018-06-05T09:44:01.539Z,34.23
2018-06-05T09:46:29.924Z,35.40
2018-06-05T09:48:58.219Z,34.73
2018-06-05T09:51:26.615Z,33.27
2018-06-05T09:53:54.930Z,36.23
2018-06-05T09:56:23.215Z,36.97
2018-06-05T09:58:51.546Z,43.23
2018-06-05T10:01:19.821Z,31.77
2018-06-05T10:03:48.235Z,33.57
2018-06-05T10:06:16.467Z,32.90
2018-06-05T10:08:44.812Z,34.03
2018-06-05T10:11:13.103Z,36.80
2018-06-05T10:13:41.414Z,39.87
2018-06-05T10:16:09.763Z,39.33
2018-06-05T10:18:38.162Z,35.40
2018-06-05T10:21:06.499Z,44.87
2018-06-05T10:23:34.802Z,45.57
2018-06-05T10:26:03.094Z,34.07
2018-06-05T10:28:31.440Z,31.20
2018-06-05T10:30:59.765Z,33.33
2018-06-05T10:33:28.066Z,34.70
2018-06-05T10:35:56.441Z,33.20
2018-06-05T10:38:24.746Z,32.13
2018-06-05T10:40:53.049Z,34.87
2018-06-05T10:43:21.379Z,34.00
2018-06-05T10:45:49.782Z,36.33
2018-06-05T10:48:18.093Z,34.20
2018-06-05T10:50:46.379Z,36.00
2018-06-05T10:53:14.667Z,34.27
2018-06-05T10:55:42.958Z,35.17
2018-06-05T10:58:11.235Z,32.23
2018-06-05T11:00:39.523Z,30.83
2018-06-05T11:03:07.801Z,33.07
2018-06-05T11:05:36.190Z,36.50
2018-06-05T11:08:04.525Z,33.47
2018-06-05T11:10:32.881Z,33.40
2018-06-05T11:13:01.171Z,69.50
2018-06-05T11:15:29.472Z,32.53
2018-06-05T11:17:57.796Z,34.67
2018-06-05T11:20:26.190Z,38.23
2018-06-05T11:22:54.480Z,32.37
2018-06-05T11:25:23.162Z,31.97
2018-06-05T11:27:51.472Z,33.17
2018-06-05T11:30:19.776Z,36.10
2018-06-05T11:32:48.060Z,33.87
2018-06-05T11:35:16.367Z,30.87
2018-06-05T11:37:44.734Z,32.73
2018-06-05T11:40:13.047Z,29.47
2018-06-05T11:42:42.041Z,31.20
2018-06-05T11:45:10.642Z,30.57
2018-06-05T11:47:38.981Z,29.17
2018-06-05T11:50:07.344Z,26.57
2018-06-05T11:52:35.753Z,28.53
2018-06-05T11:55:04.211Z,25.90
2018-06-05T11:57:32.645Z,28.43
2018-06-05T12:00:01.239Z,27.90
2018-06-05T12:02:29.643Z,23.47
2018-06-05T12:04:57.965Z,28.87
2018-06-05T12:07:26.397Z,26.83
2018-06-05T12:09:54.808Z,25.33
2018-06-05T12:12:23.092Z,25.57
2018-06-05T12:14:51.462Z,32.40
2018-06-05T12:17:19.923Z,27.87
2018-06-05T12:19:48.399Z,27.10
2018-06-05T12:22:16.775Z,29.20
2018-06-05T12:24:45.335Z,27.30
2018-06-05T12:27:13.728Z,28.17
2018-06-05T12:29:42.934Z,25.17
2018-06-05T12:32:11.289Z,25.27
2018-06-05T12:34:39.670Z,23.33
2018-06-05T12:37:08.168Z,21.23
2018-06-05T12:39:36.746Z,22.80
2018-06-05T12:42:05.185Z,25.67
2018-06-05T12:44:34.125Z,24.10
2018-06-05T12:47:02.689Z,26.23
2018-06-05T12:49:30.979Z,25.90
2018-06-05T12:51:59.464Z,25.75
2018-06-05T12:54:27.828Z,24.20
2018-06-05T12:56:56.359Z,27.17
2018-06-05T12:59:25.093Z,24.77
2018-06-05T13:01:53.619Z,26.37
2018-06-05T13:04:22.051Z,27.63
2018-06-05T13:06:50.439Z,24.97
2018-06-05T13:09:18.927Z,32.17
2018-06-05T13:11:47.589Z,34.88
2018-06-05T13:14:15.996Z,43.33
2018-06-05T13:16:44.457Z,24.75
2018-06-05T13:19:12.946Z,28.13
2018-06-05T13:21:41.361Z,32.23
2018-06-05T13:24:09.648Z,33.65
2018-06-05T13:26:37.968Z,29.42
2018-06-05T13:29:06.279Z,28.57
2018-06-05T13:31:34.587Z,26.30
2018-06-05T13:34:02.895Z,26.45
2018-06-05T13:36:31.274Z,25.33
2018-06-05T13:38:59.563Z,21.57
2018-06-05T13:41:27.963Z,24.92
2018-06-05T13:43:56.236Z,24.12
2018-06-05T13:46:25.145Z,24.92
2018-06-05T13:48:53.513Z,27.37
2018-06-05T13:51:21.913Z,26.90
2018-06-05T13:53:50.491Z,23.40
2018-06-05T13:56:19.112Z,28.02
2018-06-05T13:58:47.648Z,28.50
2018-06-05T14:01:15.942Z,39.55
2018-06-05T14:03:44.455Z,27.17
2018-06-05T14:06:12.979Z,26.35
2018-06-05T14:08:41.397Z,25.55
2018-06-05T14:11:09.695Z,27.25
2018-06-05T14:13:38.023Z,25.68
2018-06-05T14:16:06.387Z,25.95
2018-06-05T14:18:34.687Z,26.05
2018-06-05T14:21:02.994Z,27.07
2018-06-05T14:23:31.380Z,26.90
2018-06-05T14:25:59.956Z,25.85
2018-06-05T14:28:28.227Z,25.48
2018-06-05T14:30:56.532Z,25.60
2018-06-05T14:33:24.804Z,27.07
2018-06-05T14:35:53.107Z,26.23
2018-06-05T14:38:30.982Z,26.30
2018-06-05T14:40:59.360Z,27.30
2018-06-05T14:43:27.630Z,24.50
2018-06-05T14:45:55.978Z,25.62
2018-06-05T14:48:24.250Z,26.15
2018-06-05T14:50:52.535Z,25.88
2018-06-05T14:53:20.825Z,24.12
2018-06-05T14:55:49.130Z,24.47
2018-06-05T14:58:17.443Z,25.90
2018-06-05T15:00:45.879Z,24.90
2018-06-05T15:03:14.255Z,25.43
2018-06-05T15:05:42.574Z,23.95
2018-06-05T15:08:10.884Z,24.20
2018-06-05T15:10:39.233Z,26.65
2018-06-05T15:13:07.605Z,23.90
2018-06-05T15:15:35.850Z,25.05
2018-06-05T15:18:04.145Z,25.90
2018-06-05T15:20:32.429Z,22.73
2018-06-05T15:23:00.725Z,23.25
2018-06-05T15:25:29.120Z,25.57
2018-06-05T15:27:57.418Z,27.48
2018-06-05T15:30:25.694Z,23.47
2018-06-05T15:32:54.007Z,24.72
2018-06-05T15:35:22.291Z,24.77
2018-06-05T15:37:50.603Z,25.77
2018-06-05T15:40:18.874Z,28.80
2018-06-05T15:42:47.190Z,26.85
2018-06-05T15:45:15.477Z,24.27
2018-06-05T15:47:43.944Z,27.07
2018-06-05T15:50:12.214Z,24.43
2018-06-05T15:52:40.529Z,26.40
2018-06-05T15:55:08.799Z,23.50
2018-06-05T15:57:37.211Z,24.45
2018-06-05T16:00:06.423Z,23.25
2018-06-05T16:02:34.730Z,25.48
2018-06-05T16:05:03.004Z,24.32
2018-06-05T16:07:31.315Z,25.12
2018-06-05T16:10:02.456Z,23.35
2018-06-05T16:12:30.746Z,21.87
2018-06-05T16:14:59.096Z,23.65
2018-06-05T16:17:27.402Z,22.17
2018-06-05T16:19:55.690Z,23.18
2018-06-05T16:22:23.982Z,20.92
2018-06-05T16:24:52.235Z,19.77
2018-06-05T16:27:20.544Z,21.93
2018-06-05T16:29:48.818Z,24.20
2018-06-05T16:32:17.115Z,21.77
2018-06-05T16:34:45.383Z,22.50
2018-06-05T16:37:13.671Z,23.62
2018-06-05T16:39:42.016Z,21.97
2018-06-05T16:42:10.350Z,22.17
2018-06-05T16:44:38.626Z,22.65
2018-06-05T16:47:07.023Z,20.68
2018-06-05T16:49:35.304Z,21.00
2018-06-05T16:52:03.680Z,21.80
2018-06-05T16:54:31.981Z,23.70
2018-06-05T16:57:00.290Z,23.47
2018-06-05T16:59:28.644Z,21.73
2018-06-05T17:01:57.735Z,20.05
2018-06-05T17:04:26.119Z,20.15
2018-06-05T17:06:54.384Z,21.87
2018-06-05T17:09:22.727Z,21.70
2018-06-05T17:11:51.075Z,23.25
2018-06-05T17:14:19.383Z,21.62
2018-06-05T17:16:47.675Z,25.65
2018-06-05T17:19:16.022Z,22.15
2018-06-05T17:21:44.337Z,19.80
2018-06-05T17:24:12.687Z,20.32
2018-06-05T17:26:40.962Z,21.60
2018-06-05T17:29:09.260Z,20.50
2018-06-05T17:31:37.577Z,20.60
2018-06-05T17:34:05.991Z,20.82
2018-06-05T17:36:34.280Z,20.80
2018-06-05T17:39:02.700Z,20.82
2018-06-05T17:41:31.119Z,21.25
2018-06-05T17:43:59.553Z,20.50
2018-06-05T17:46:27.832Z,20.40
2018-06-05T17:48:56.255Z,20.77
2018-06-05T17:51:24.512Z,22.22
2018-06-05T17:53:53.127Z,21.95
2018-06-05T17:56:21.386Z,22.58
2018-06-05T17:58:49.780Z,22.22
2018-06-05T18:01:18.122Z,23.20
2018-06-05T18:03:46.413Z,21.73
2018-06-05T18:06:14.699Z,22.15
2018-06-05T18:08:43.010Z,24.25
2018-06-05T18:11:11.265Z,21.42
2018-06-05T18:13:39.645Z,21.90
2018-06-05T18:16:07.966Z,24.15
2018-06-05T18:18:36.352Z,23.35
2018-06-05T18:21:04.638Z,22.07
2018-06-05T18:23:32.962Z,22.35
2018-06-05T18:26:01.258Z,21.35
2018-06-05T18:28:29.574Z,21.75
2018-06-05T18:30:57.931Z,22.32
2018-06-05T18:33:26.280Z,22.40
2018-06-05T18:35:55.024Z,21.33
2018-06-05T18:38:23.327Z,22.35
2018-06-05T18:40:51.685Z,21.15
2018-06-05T18:43:20.187Z,22.90
2018-06-05T18:45:48.506Z,22.20
2018-06-05T18:48:16.874Z,23.98
2018-06-05T18:50:45.144Z,20.60
2018-06-05T18:53:13.571Z,22.15
2018-06-05T18:55:41.839Z,22.87
2018-06-05T18:58:10.144Z,22.85
2018-06-05T19:00:38.491Z,23.27
2018-06-05T19:03:06.758Z,21.10
2018-06-05T19:05:35.080Z,21.60
2018-06-05T19:08:03.370Z,23.50
2018-06-05T19:10:31.693Z,21.37
2018-06-05T19:12:59.985Z,21.35
2018-06-05T19:15:28.342Z,22.47
2018-06-05T19:17:56.848Z,22.07
2018-06-05T19:20:25.411Z,20.70
2018-06-05T19:22:53.774Z,19.67
2018-06-05T19:25:22.078Z,23.30
2018-06-05T19:27:50.388Z,20.23
2018-06-05T19:30:18.687Z,19.73
2018-06-05T19:32:46.976Z,19.00
2018-06-05T19:35:15.376Z,19.82
2018-06-05T19:37:43.685Z,18.37
2018-06-05T19:40:11.994Z,19.87
2018-06-05T19:42:40.262Z,19.55
2018-06-05T19:45:08.738Z,19.90
2018-06-05T19:47:37.014Z,18.20
2018-06-05T19:50:05.333Z,17.57
2018-06-05T19:52:33.661Z,21.47
2018-06-05T19:55:02.092Z,20.57
2018-06-05T19:57:30.411Z,20.27
2018-06-05T19:59:58.739Z,19.10
2018-06-05T20:02:27.245Z,19.83
2018-06-05T20:04:55.544Z,19.90
2018-06-05T20:07:23.826Z,20.90
2018-06-05T20:09:52.194Z,19.10
2018-06-05T20:12:20.658Z,19.97
2018-06-05T20:14:48.962Z,18.30
2018-06-05T20:17:17.261Z,19.20
2018-06-05T20:19:45.567Z,21.23
2018-06-05T20:22:13.843Z,18.70
2018-06-05T20:24:42.162Z,19.70
2018-06-05T20:27:10.450Z,22.70
2018-06-05T20:29:38.762Z,19.80
2018-06-05T20:32:07.045Z,20.07
2018-06-05T20:34:35.366Z,19.00
2018-06-05T20:37:03.667Z,19.37
2018-06-05T20:39:32.059Z,19.43
2018-06-05T20:42:00.343Z,17.80
2018-06-05T20:44:28.606Z,20.00
2018-06-05T20:46:56.963Z,17.93
2018-06-05T20:49:25.302Z,19.23
2018-06-05T20:51:53.736Z,17.27
2018-06-05T20:54:23.171Z,20.17
2018-06-05T20:56:51.488Z,19.33
2018-06-05T20:59:19.794Z,17.33
2018-06-05T21:01:48.112Z,17.93
2018-06-05T21:04:16.469Z,20.03
2018-06-05T21:06:44.786Z,19.83
2018-06-05T21:09:13.167Z,17.30
2018-06-05T21:11:43.655Z,16.87
2018-06-05T21:14:11.944Z,16.80
2018-06-05T21:16:40.951Z,17.03
2018-06-05T21:19:09.235Z,17.07
2018-06-05T21:21:38.661Z,18.27
2018-06-05T21:24:07.202Z,16.37
2018-06-05T21:26:37.652Z,16.57
2018-06-05T21:29:06.291Z,18.23
2018-06-05T21:31:34.612Z,19.83
2018-06-05T21:34:02.904Z,17.73
2018-06-05T21:36:31.255Z,18.57
2018-06-05T21:38:59.601Z,16.90
2018-06-05T21:41:27.930Z,17.50
2018-06-05T21:43:56.214Z,18.03
2018-06-05T21:46:24.601Z,16.60
2018-06-05T21:48:52.877Z,18.00
2018-06-05T21:51:21.191Z,21.20
2018-06-05T21:53:49.480Z,19.20
2018-06-05T21:56:17.855Z,18.23
2018-06-05T21:58:46.178Z,17.43
2018-06-05T22:01:14.502Z,18.20
2018-06-05T22:03:42.837Z,21.53
2018-06-05T22:06:11.161Z,19.13
2018-06-05T22:08:39.430Z,19.60
2018-06-05T22:11:07.875Z,21.37
2018-06-05T22:13:36.169Z,19.57
2018-06-05T22:16:04.485Z,19.60
2018-06-05T22:18:32.750Z,19.53
2018-06-05T22:21:01.099Z,18.27
2018-06-05T22:23:29.377Z,18.53
2018-06-05T22:25:57.738Z,19.50
2018-06-05T22:28:26.129Z,20.90
2018-06-05T22:30:54.405Z,18.43
2018-06-05T22:33:22.964Z,21.70
2018-06-05T22:35:54.311Z,20.03
2018-06-05T22:38:22.755Z,20.07
2018-06-05T22:40:51.039Z,18.67
2018-06-05T22:43:19.361Z,16.83
2018-06-05T22:45:47.755Z,21.00
2018-06-05T22:48:16.076Z,18.83
2018-06-05T22:50:44.397Z,21.20
2018-06-05T22:53:12.706Z,19.37
2018-06-05T22:55:41.015Z,20.90
2018-06-05T22:58:09.342Z,19.40
2018-06-05T23:00:37.636Z,22.83
2018-06-05T23:03:05.987Z,21.70
2018-06-05T23:05:34.262Z,21.10
2018-06-05T23:08:02.564Z,22.83
2018-06-05T23:10:30.934Z,20.17
2018-06-05T23:12:59.246Z,21.23
2018-06-05T23:15:27.560Z,18.13
2018-06-05T23:17:55.870Z,18.33
2018-06-05T23:20:24.154Z,19.47
2018-06-05T23:22:52.486Z,18.73
2018-06-05T23:25:20.755Z,24.93
2018-06-05T23:27:49.061Z,21.13
2018-06-05T23:30:17.374Z,22.40
2018-06-05T23:32:45.705Z,18.47
2018-06-05T23:35:14.047Z,20.17
2018-06-05T23:37:42.365Z,21.10
2018-06-05T23:40:10.649Z,19.80
2018-06-05T23:42:38.980Z,19.90
2018-06-05T23:45:07.302Z,18.80
2018-06-05T23:47:35.978Z,17.93
2018-06-05T23:50:04.265Z,17.63
2018-06-05T23:52:32.588Z,16.73
2018-06-05T23:55:00.876Z,18.63
2018-06-05T23:57:29.156Z,17.97
2018-06-05T23:59:57.482Z,19.90
